Latest Weather Observations for Charlton

IDV60801

Issued at 1:02 pm EDT Monday 8 February 2016 (issued every 30 minutes, with the page automatically refreshed every 10 minutes)

About weather observations | Map of weather stations | Latest weather observations for VIC | Other Formats
Station Details ID: 080128 Name: CHARLTON Lat: -36.28 Lon: 143.33 Height: 131.7 m
Data from the previous 72 hours. | See also: Recent months at Charlton
Date/Time
EDT
Temp
°C
App
Temp
°C
Dew
Point
Rel
Hum
%
Delta-T
°C
Wind Press
QNH
hPa
Press
MSL
hPa
Rain
since 9 am
mm
Dir
 
Spd
km/h
Gust
km/h
Spd
kts
Gust
kts
08/01:00pm 32.0 29.6 10.1 26 12.6 S 13 20 7 11 1019.5 1018.9 0.0
08/12:30pm 31.2 29.1 11.1 29 11.7 SSW 13 20 7 11 1019.7 1019.1 0.0
08/12:00pm 30.5 28.1 9.9 28 11.7 SSW 13 19 7 10 1019.8 1019.2 0.0
08/11:30am 28.9 27.7 11.5 34 10.1 SSE 9 19 5 10 1019.9 1019.3 0.0
08/11:00am 28.6 27.0 11.6 34 9.8 SSE 11 15 6 8 1020.0 1019.4 0.0
08/10:30am 26.9 25.6 12.5 40 8.4 SE 11 19 6 10 1020.1 1019.5 0.0
08/10:00am 24.8 23.4 13.4 49 6.7 SSE 13 19 7 10 1020.1 1019.5 0.0
08/09:30am 23.1 21.7 13.3 54 5.7 SSE 13 20 7 11 1020.1 1019.5 0.0
08/09:00am 21.9 19.8 13.5 59 4.9 SSE 17 24 9 13 1020.0 1019.4 0.0
08/08:30am 20.7 19.4 13.6 64 4.1 S 13 17 7 9 1019.8 1019.2 0.0
08/08:00am 19.4 18.6 12.9 66 3.7 S 9 15 5 8 1019.6 1019.0 0.0
08/07:30am 18.1 17.3 13.0 72 2.9 S 9 15 5 8 1019.3 1018.7 0.0
08/07:00am 17.7 16.9 12.8 73 2.7 S 9 13 5 7 1019.2 1018.6 0.0
08/06:30am 17.9 16.7 12.8 72 2.9 S 11 19 6 10 1019.0 1018.4 0.0
08/06:00am 18.2 16.5 12.6 70 3.1 S 13 20 7 11 1018.7 1018.1 0.0
08/05:30am 18.4 17.5 12.6 69 3.3 S 9 15 5 8 1018.6 1018.0 0.0
08/05:00am 18.7 17.8 12.7 68 3.4 S 9 17 5 9 1018.5 1017.9 0.0
08/04:30am 19.1 17.4 12.6 66 3.7 S 13 17 7 9 1018.2 1017.7 0.0
08/04:00am 19.7 18.0 12.5 63 4.1 S 13 20 7 11 1018.1 1017.6 0.0
08/03:30am 20.4 18.7 12.4 60 4.5 SSE 13 20 7 11 1018.0 1017.5 0.0
08/03:00am 21.0 19.4 12.7 59 4.7 S 13 22 7 12 1018.1 1017.6 0.0
08/02:30am 21.7 20.0 12.5 56 5.2 S 13 20 7 11 1018.1 1017.6 0.0
08/02:00am 22.3 20.6 12.5 53 5.6 S 13 24 7 13 1018.0 1017.5 0.0
08/01:30am 22.8 21.1 12.4 52 5.9 S 13 20 7 11 1017.9 1017.4 0.0
08/01:00am 23.5 21.7 12.2 49 6.4 SSE 13 22 7 12 1017.7 1017.2 0.0
08/12:30am 24.4 22.6 12.0 46 7.1 S 13 19 7 10 1017.6 1017.1 0.0
08/12:00am 25.1 23.6 12.0 44 7.5 S 11 15 6 8 1017.4 1016.9 0.0
 
Date/Time
EDT
Temp
°C
App
Temp
°C
Dew
Point
Rel
Hum
%
Delta-T
°C
Wind Press
QNH
hPa
Press
MSL
hPa
Rain
since 9 am
mm
Dir
 
Spd
km/h
Gust
km/h
Spd
kts
Gust
kts
07/11:30pm 26.0 23.3 11.7 41 8.2 SSE 17 24 9 13 1017.1 1016.6 0.0
07/11:00pm 26.6 23.5 11.5 39 8.6 SSE 19 28 10 15 1016.9 1016.4 0.0
07/10:30pm 27.6 23.5 11.6 37 9.2 SSE 24 32 13 17 1016.5 1016.0 0.0
07/10:00pm 28.8 24.5 12.2 35 9.7 SSE 26 39 14 21 1016.3 1015.8 0.0
07/09:59pm 29.0 24.4 12.4 36 9.8 SSE 28 39 15 21 1016.3 1015.8 0.0
07/09:30pm 27.8 27.2 11.8 37 9.3 W 6 9 3 5 1015.4 1014.8 0.0
07/09:00pm 28.9 29.4 11.5 34 10.1 CALM 0 0 0 0 1015.0 1014.4 0.0
07/08:30pm 30.8 30.7 9.6 27 12.0 CALM 0 0 0 0 1014.8 1014.2 0.0
07/08:00pm 32.8 32.4 8.3 22 13.7 CALM 0 0 0 0 1014.6 1014.0 0.0
07/07:30pm 33.6 32.7 7.6 20 14.5 SW 2 7 1 4 1014.4 1013.8 0.0
07/07:00pm 35.0 33.2 7.1 18 15.5 SSE 6 11 3 6 1014.1 1013.5 0.0
07/06:30pm 35.3 33.6 7.4 18 15.6 W 6 11 3 6 1014.1 1013.5 0.0
07/06:00pm 34.9 32.3 6.2 17 15.7 SSE 9 13 5 7 1014.1 1013.5 0.0
07/05:30pm 34.6 32.5 6.8 18 15.4 SSE 7 13 4 7 1014.1 1013.5 0.0
07/05:00pm 34.3 31.4 6.6 18 15.2 WNW 11 15 6 8 1014.2 1013.6 0.0
07/04:30pm 34.6 32.7 7.6 19 15.1 SSW 7 15 4 8 1014.5 1013.9 0.0
07/04:00pm 34.8 32.4 7.0 18 15.4 W 9 13 5 7 1014.7 1014.1 0.0
07/03:30pm 34.3 31.4 8.1 20 14.7 SSE 13 24 7 13 1014.9 1014.3 0.0
07/03:00pm 34.3 32.3 8.8 21 14.5 NNE 9 13 5 7 1015.2 1014.6 0.0
07/02:30pm 33.0 31.3 8.5 22 13.8 NNE 7 13 4 7 1015.6 1015.0 0.0
07/02:00pm 33.0 31.0 8.5 22 13.8 SE 9 17 5 9 1015.9 1015.4 0.0
07/01:30pm 32.5 30.7 9.3 24 13.2 NE 9 15 5 8 1016.2 1015.7 0.0
07/01:00pm 32.5 30.6 10.5 26 12.7 NE 11 17 6 9 1016.4 1015.9 0.0
07/12:30pm 31.7 30.2 9.3 25 12.7 SE 7 13 4 7 1016.7 1016.2 0.0
07/12:00pm 31.1 29.8 9.9 27 12.1 WNW 7 13 4 7 1017.0 1016.5 0.0
07/11:30am 29.7 28.0 9.8 29 11.3 NNE 9 15 5 8 1017.0 1016.5 0.0
07/11:00am 29.4 27.9 10.5 31 10.8 NNE 9 15 5 8 1017.2 1016.7 0.0
07/10:30am 28.2 26.9 11.3 35 9.7 NNE 9 15 5 8 1017.3 1016.8 0.0
07/10:00am 26.7 24.9 10.8 37 9.0 NNE 11 17 6 9 1017.3 1016.8 0.0
07/09:30am 26.2 24.5 11.2 39 8.5 NE 11 17 6 9 1017.2 1016.7 0.0
07/09:00am 25.3 24.4 11.5 42 7.9 E 7 9 4 5 1017.2 1016.7 0.0
07/08:30am 23.4 23.5 11.5 47 6.7 E 2 7 1 4 1016.9 1016.4 0.0
07/08:00am 21.4 20.9 12.0 55 5.3 E 6 9 3 5 1016.4 1015.9 0.0
07/07:30am 18.0 18.6 12.0 68 3.3 CALM 0 0 0 0 1016.0 1015.5 0.0
07/07:00am 17.4 18.0 11.9 70 3.0 CALM 0 0 0 0 1015.6 1015.0 0.0
07/06:30am 17.6 17.9 10.9 65 3.6 CALM 0 0 0 0 1015.3 1014.7 0.0
07/06:00am 17.9 18.5 11.9 68 3.3 CALM 0 0 0 0 1014.9 1014.3 0.0
07/05:30am 17.9 18.1 11.7 67 3.4 SSW 2 6 1 3 1015.0 1014.4 0.0
07/05:00am 18.0 18.4 11.3 65 3.7 CALM 0 0 0 0 1014.7 1014.1 0.0
07/04:30am 18.4 18.9 11.7 65 3.7 CALM 0 2 0 1 1014.7 1014.1 0.0
07/04:00am 18.8 18.5 11.6 63 4.0 ESE 4 6 2 3 1014.6 1014.0 0.0
07/03:30am 18.7 19.3 11.8 64 3.8 CALM 0 0 0 0 1014.7 1014.1 0.0
07/03:00am 19.7 20.0 10.9 57 4.8 CALM 0 0 0 0 1014.6 1014.0 0.0
07/02:30am 20.6 21.1 11.5 56 5.1 CALM 0 4 0 2 1014.7 1014.1 0.0
07/02:00am 20.6 20.0 10.4 52 5.6 SSE 4 7 2 4 1014.8 1014.2 0.0
07/01:30am 21.2 20.1 10.7 51 5.8 S 7 15 4 8 1014.9 1014.3 0.0
07/01:00am 21.9 21.4 10.7 49 6.2 ENE 4 6 2 3 1014.8 1014.2 0.0
07/12:30am 23.3 22.1 10.4 44 7.1 NE 7 9 4 5 1014.7 1014.1 0.0
07/12:00am 24.2 22.9 10.1 41 7.8 NNE 7 9 4 5 1014.6 1014.0 0.0
 
Date/Time
EDT
Temp
°C
App
Temp
°C
Dew
Point
Rel
Hum
%
Delta-T
°C
Wind Press
QNH
hPa
Press
MSL
hPa
Rain
since 9 am
mm
Dir
 
Spd
km/h
Gust
km/h
Spd
kts
Gust
kts
06/11:30pm 23.7 22.4 11.4 46 6.9 NNE 9 9 5 5 1014.5 1013.9 0.0
06/11:00pm 24.5 23.4 10.0 40 8.0 NNE 6 7 3 4 1014.6 1014.0 0.0
06/10:30pm 24.9 23.9 11.1 42 7.8 N 7 9 4 5 1014.4 1013.8 0.0
06/10:00pm 26.0 24.8 9.4 35 9.2 N 6 7 3 4 1014.2 1013.6 0.0
06/09:30pm 27.1 25.9 9.5 33 9.8 N 6 9 3 5 1014.0 1013.4 0.0
06/09:00pm 28.5 26.9 8.7 29 10.9 NNE 7 11 4 6 1013.7 1013.1 0.0
06/08:30pm 29.4 27.4 8.5 27 11.6 NNE 9 13 5 7 1013.4 1012.8 0.0
06/08:00pm 30.5 28.4 8.3 25 12.3 NE 9 11 5 6 1013.3 1012.7 0.0
06/07:30pm 31.1 28.6 8.2 24 12.7 NE 11 15 6 8 1013.1 1012.5 0.0
06/07:00pm 31.5 29.7 7.9 23 13.1 ENE 7 13 4 7 1012.9 1012.3 0.0
06/06:30pm 32.0 30.5 8.3 23 13.2 NE 6 13 3 7 1012.9 1012.3 0.0
06/06:00pm 31.9 30.1 9.4 25 12.8 ENE 9 19 5 10 1012.9 1012.3 0.0
06/05:30pm 31.5 29.7 7.9 23 13.1 NW 7 11 4 6 1012.9 1012.3 0.0
06/05:00pm 31.9 30.2 8.2 23 13.2 ESE 7 13 4 7 1013.1 1012.5 0.0
06/04:30pm 31.7 29.3 8.7 24 12.9 ENE 11 19 6 10 1013.5 1012.9 0.0
06/04:00pm 30.9 28.4 8.0 24 12.7 SSE 11 19 6 10 1014.1 1013.5 0.0
06/03:30pm 31.0 29.5 9.3 26 12.3 N 7 15 4 8 1014.4 1013.8 0.0
06/03:00pm 30.7 28.2 8.4 25 12.4 E 11 17 6 9 1014.9 1014.3 0.0
06/02:30pm 30.5 29.1 8.8 26 12.1 W 6 9 3 5 1015.3 1014.7 0.0
06/02:00pm 30.1 28.1 8.5 26 12.0 NE 9 15 5 8 1015.7 1015.1 0.0
06/01:30pm 28.8 26.4 8.5 28 11.2 ENE 11 19 6 10 1015.9 1015.4 0.0
06/01:00pm 28.4 26.5 9.2 30 10.7 NNE 9 17 5 9 1016.4 1015.9 0.0
06/12:30pm 27.8 25.0 8.6 30 10.5 E 13 17 7 9 1016.8 1016.3 0.0
06/12:00pm 27.0 24.8 9.4 33 9.7 NNE 11 19 6 10 1017.2 1016.7 0.0
06/11:30am 26.2 23.6 9.5 35 9.2 NE 13 20 7 11 1017.4 1016.9 0.0
06/11:00am 25.8 22.5 9.6 36 8.9 NE 17 24 9 13 1017.5 1017.0 0.0
06/10:30am 24.9 21.8 10.4 40 8.1 NNE 17 24 9 13 1017.6 1017.1 0.0
06/10:00am 23.4 19.9 10.1 43 7.3 NE 19 30 10 16 1017.5 1017.0 0.0
06/09:30am 22.5 18.8 10.3 46 6.7 NNE 20 30 11 16 1017.5 1017.0 0.0
06/09:00am 22.0 18.5 10.8 49 6.2 NNE 20 30 11 16 1017.5 1017.0 0.0
06/08:30am 21.4 18.4 10.6 50 5.9 NE 17 24 9 13 1017.5 1017.0 0.0
06/08:00am 20.8 18.2 10.6 52 5.6 NE 15 24 8 13 1017.2 1016.7 0.0
06/07:30am 19.7 17.9 10.7 56 4.9 NE 11 17 6 9 1017.0 1016.5 0.0
06/07:00am 19.3 17.3 10.3 56 4.9 NE 11 17 6 9 1016.5 1016.0 0.0
06/06:30am 19.7 18.2 10.7 56 4.9 NE 9 13 5 7 1016.2 1015.7 0.0
06/06:00am 18.9 17.9 11.0 60 4.3 ENE 7 11 4 6 1015.7 1015.1 0.0
06/05:30am 19.4 18.4 10.9 58 4.7 ENE 7 9 4 5 1015.6 1015.0 0.0
06/05:00am 17.8 17.7 10.9 64 3.7 E 2 7 1 4 1015.5 1014.9 0.0
06/04:30am 18.4 17.6 11.0 62 4.0 E 6 9 3 5 1015.3 1014.7 0.0
06/04:00am 18.1 17.2 10.7 62 4.0 SE 6 7 3 4 1015.1 1014.5 0.0
06/03:30am 19.5 18.4 10.5 56 4.9 SE 7 9 4 5 1015.0 1014.4 0.0
06/03:00am 19.9 18.3 10.3 54 5.2 ESE 9 11 5 6 1015.1 1014.5 0.0
06/02:30am 20.1 18.9 10.2 53 5.4 SE 7 9 4 5 1015.3 1014.7 0.0
06/02:00am 20.5 19.4 10.0 51 5.7 S 6 7 3 4 1015.3 1014.7 0.0
06/01:30am 22.1 20.8 9.3 44 6.9 ESE 6 9 3 5 1015.4 1014.8 0.0
06/01:00am 22.9 20.7 9.3 42 7.4 ESE 11 17 6 9 1015.5 1014.9 0.0
06/12:30am 22.5 20.5 10.0 45 6.8 SE 11 15 6 8 1015.5 1014.9 0.0
06/12:00am 23.0 21.6 9.0 41 7.5 SE 6 9 3 5 1015.4 1014.8 0.0
 
Date/Time
EDT
Temp
°C
App
Temp
°C
Dew
Point
Rel
Hum
%
Delta-T
°C
Wind Press
QNH
hPa
Press
MSL
hPa
Rain
since 9 am
mm
Dir
 
Spd
km/h
Gust
km/h
Spd
kts
Gust
kts
05/11:30pm 24.2 23.4 8.2 36 8.6 SE 2 6 1 3 1015.5 1014.9 0.0
05/11:00pm 25.3 23.1 9.2 36 8.8 SE 11 17 6 9 1015.4 1014.8 0.0
05/10:30pm 23.7 22.4 11.4 46 6.9 SSW 9 13 5 7 1015.3 1014.7 0.0
05/10:00pm 23.9 24.9 13.2 51 6.2 CALM 0 0 0 0 1015.0 1014.4 0.0
05/09:30pm 25.0 25.6 11.9 44 7.5 CALM 0 0 0 0 1014.8 1014.2 0.0
05/09:00pm 26.6 25.6 10.3 36 9.2 N 6 7 3 4 1014.5 1013.9 0.0
05/08:30pm 28.6 28.5 10.8 33 10.2 ESE 2 6 1 3 1014.3 1013.7 0.0
05/08:00pm 29.9 28.6 9.9 29 11.3 S 7 11 4 6 1014.1 1013.5 0.0
05/07:30pm 30.9 29.0 9.2 26 12.2 SSE 9 15 5 8 1013.9 1013.3 0.0
05/07:00pm 31.0 30.2 9.8 27 12.1 E 4 9 2 5 1013.7 1013.1 0.0
05/06:30pm 31.3 29.7 10.1 27 12.1 SSE 9 17 5 9 1013.7 1013.1 0.0
05/06:00pm 31.2 29.9 10.0 27 12.1 SSE 7 13 4 7 1014.0 1013.4 0.0
05/05:30pm 31.3 30.0 11.1 29 11.8 ESE 9 19 5 10 1014.2 1013.6 0.0
05/05:00pm 30.8 29.3 9.1 26 12.2 SW 7 17 4 9 1014.6 1014.0 0.0
05/04:30pm 30.6 29.3 11.1 30 11.3 ENE 9 15 5 8 1014.9 1014.3 0.0
05/04:00pm 31.1 30.2 11.5 30 11.5 S 7 15 4 8 1015.4 1014.8 0.0
05/03:30pm 29.7 28.8 11.2 31 10.7 E 7 11 4 6 1015.7 1015.1 0.0
05/03:00pm 28.3 27.3 10.9 34 9.9 N 7 13 4 7 1016.3 1015.8 0.0
05/02:30pm 27.8 26.5 11.4 36 9.4 NE 9 11 5 6 1016.9 1016.4 0.0
05/02:00pm 27.3 26.0 11.3 37 9.2 NE 9 15 5 8 1017.4 1016.9 0.0
05/01:30pm 26.4 24.3 11.3 39 8.6 E 13 20 7 11 1017.7 1017.2 0.0

Other Formats:

Comma delimited format used in spreadsheet applications
http://www.bom.gov.au/fwo/IDV60801/IDV60801.94839.axf

JavaScript Object Notation format (JSON) in row-major order
http://www.bom.gov.au/fwo/IDV60801/IDV60801.94839.json